sensor_id;sensor_type;location;lat;lon;timestamp;P1;durP1;ratioP1;P2;durP2;ratioP2
68507;SDS011;55510;49.560;19.090;2022-10-31T00:01:18;16.43;;;5.40;;
68507;SDS011;55510;49.560;19.090;2022-10-31T00:04:24;13.07;;;6.35;;
68507;SDS011;55510;49.560;19.090;2022-10-31T00:07:25;15.27;;;5.90;;
68507;SDS011;55510;49.560;19.090;2022-10-31T00:10:25;19.10;;;7.00;;
68507;SDS011;55510;49.560;19.090;2022-10-31T00:13:26;14.70;;;6.33;;
68507;SDS011;55510;49.560;19.090;2022-10-31T00:16:27;16.38;;;6.13;;
68507;SDS011;55510;49.560;19.090;2022-10-31T00:19:28;14.80;;;5.22;;
68507;SDS011;55510;49.560;19.090;2022-10-31T00:22:29;16.33;;;6.00;;
68507;SDS011;55510;49.560;19.090;2022-10-31T00:25:32;13.40;;;5.10;;
68507;SDS011;55510;49.560;19.090;2022-10-31T00:28:34;15.60;;;5.90;;
68507;SDS011;55510;49.560;19.090;2022-10-31T00:31:35;13.40;;;5.45;;
68507;SDS011;55510;49.560;19.090;2022-10-31T00:34:36;11.27;;;4.77;;
68507;SDS011;55510;49.560;19.090;2022-10-31T00:37:36;13.63;;;5.68;;
68507;SDS011;55510;49.560;19.090;2022-10-31T00:40:37;16.70;;;6.80;;
68507;SDS011;55510;49.560;19.090;2022-10-31T00:43:38;12.43;;;5.37;;
68507;SDS011;55510;49.560;19.090;2022-10-31T00:46:38;11.93;;;4.20;;
68507;SDS011;55510;49.560;19.090;2022-10-31T00:49:39;11.27;;;4.23;;
68507;SDS011;55510;49.560;19.090;2022-10-31T00:52:40;11.68;;;4.88;;
68507;SDS011;55510;49.560;19.090;2022-10-31T00:55:40;9.47;;;3.80;;
68507;SDS011;55510;49.560;19.090;2022-10-31T00:58:41;12.07;;;5.13;;
68507;SDS011;55510;49.560;19.090;2022-10-31T01:01:42;9.27;;;4.97;;
68507;SDS011;55510;49.560;19.090;2022-10-31T01:04:42;16.93;;;7.67;;
68507;SDS011;55510;49.560;19.090;2022-10-31T01:07:43;17.65;;;7.25;;
68507;SDS011;55510;49.560;19.090;2022-10-31T01:10:43;17.67;;;7.47;;
68507;SDS011;55510;49.560;19.090;2022-10-31T01:13:44;14.57;;;5.90;;
68507;SDS011;55510;49.560;19.090;2022-10-31T01:16:45;12.20;;;5.55;;
68507;SDS011;55510;49.560;19.090;2022-10-31T01:19:46;11.05;;;5.03;;
68507;SDS011;55510;49.560;19.090;2022-10-31T01:22:46;16.03;;;6.07;;
68507;SDS011;55510;49.560;19.090;2022-10-31T01:25:47;11.43;;;4.78;;
68507;SDS011;55510;49.560;19.090;2022-10-31T01:28:49;10.57;;;4.70;;
68507;SDS011;55510;49.560;19.090;2022-10-31T01:31:51;13.60;;;5.63;;
68507;SDS011;55510;49.560;19.090;2022-10-31T01:34:52;12.73;;;3.93;;
68507;SDS011;55510;49.560;19.090;2022-10-31T01:37:53;11.13;;;2.90;;
68507;SDS011;55510;49.560;19.090;2022-10-31T01:40:53;10.50;;;3.93;;
68507;SDS011;55510;49.560;19.090;2022-10-31T01:43:55;9.47;;;3.77;;
68507;SDS011;55510;49.560;19.090;2022-10-31T01:46:57;13.02;;;5.00;;
68507;SDS011;55510;49.560;19.090;2022-10-31T01:50:04;13.43;;;5.93;;
68507;SDS011;55510;49.560;19.090;2022-10-31T01:53:11;9.30;;;3.95;;
68507;SDS011;55510;49.560;19.090;2022-10-31T01:56:13;9.02;;;3.45;;
68507;SDS011;55510;49.560;19.090;2022-10-31T01:59:16;12.90;;;3.70;;
68507;SDS011;55510;49.560;19.090;2022-10-31T02:02:21;9.63;;;3.45;;
68507;SDS011;55510;49.560;19.090;2022-10-31T02:05:22;10.07;;;3.47;;
68507;SDS011;55510;49.560;19.090;2022-10-31T02:08:27;11.30;;;4.00;;
68507;SDS011;55510;49.560;19.090;2022-10-31T02:11:29;11.32;;;5.05;;
68507;SDS011;55510;49.560;19.090;2022-10-31T02:14:31;10.48;;;4.03;;
68507;SDS011;55510;49.560;19.090;2022-10-31T02:17:32;8.23;;;3.30;;
68507;SDS011;55510;49.560;19.090;2022-10-31T02:30:27;11.20;;;3.60;;
68507;SDS011;55510;49.560;19.090;2022-10-31T02:33:43;9.57;;;3.40;;
68507;SDS011;55510;49.560;19.090;2022-10-31T02:36:58;11.93;;;3.88;;
68507;SDS011;55510;49.560;19.090;2022-10-31T02:40:15;14.05;;;6.40;;
68507;SDS011;55510;49.560;19.090;2022-10-31T02:43:23;11.77;;;5.70;;
68507;SDS011;55510;49.560;19.090;2022-10-31T02:53:03;9.02;;;3.90;;
68507;SDS011;55510;49.560;19.090;2022-10-31T02:56:05;11.45;;;6.28;;
68507;SDS011;55510;49.560;19.090;2022-10-31T02:59:11;12.68;;;5.70;;
68507;SDS011;55510;49.560;19.090;2022-10-31T03:05:38;19.45;;;8.77;;
68507;SDS011;55510;49.560;19.090;2022-10-31T03:08:43;13.27;;;6.55;;
68507;SDS011;55510;49.560;19.090;2022-10-31T03:22:04;8.13;;;2.58;;
68507;SDS011;55510;49.560;19.090;2022-10-31T03:25:10;8.15;;;3.45;;
68507;SDS011;55510;49.560;19.090;2022-10-31T03:28:13;9.63;;;3.70;;
68507;SDS011;55510;49.560;19.090;2022-10-31T03:31:17;10.53;;;3.70;;
68507;SDS011;55510;49.560;19.090;2022-10-31T03:34:22;7.75;;;3.53;;
68507;SDS011;55510;49.560;19.090;2022-10-31T03:37:24;12.88;;;4.82;;
68507;SDS011;55510;49.560;19.090;2022-10-31T03:40:27;16.58;;;6.28;;
68507;SDS011;55510;49.560;19.090;2022-10-31T03:43:30;27.33;;;9.10;;
68507;SDS011;55510;49.560;19.090;2022-10-31T03:46:36;21.43;;;7.93;;
68507;SDS011;55510;49.560;19.090;2022-10-31T03:49:37;14.57;;;5.78;;
68507;SDS011;55510;49.560;19.090;2022-10-31T03:52:41;14.57;;;5.30;;
68507;SDS011;55510;49.560;19.090;2022-10-31T03:56:01;13.40;;;5.43;;
68507;SDS011;55510;49.560;19.090;2022-10-31T03:59:09;18.40;;;6.30;;
68507;SDS011;55510;49.560;19.090;2022-10-31T04:02:18;14.50;;;5.68;;
68507;SDS011;55510;49.560;19.090;2022-10-31T04:05:22;15.38;;;5.45;;
68507;SDS011;55510;49.560;19.090;2022-10-31T04:08:26;15.55;;;5.63;;
68507;SDS011;55510;49.560;19.090;2022-10-31T04:11:30;14.55;;;5.75;;
68507;SDS011;55510;49.560;19.090;2022-10-31T04:14:35;18.47;;;8.60;;
68507;SDS011;55510;49.560;19.090;2022-10-31T04:17:39;22.33;;;10.73;;
68507;SDS011;55510;49.560;19.090;2022-10-31T04:20:43;17.30;;;7.80;;
68507;SDS011;55510;49.560;19.090;2022-10-31T04:23:43;18.70;;;8.37;;
68507;SDS011;55510;49.560;19.090;2022-10-31T04:26:44;16.30;;;7.00;;
68507;SDS011;55510;49.560;19.090;2022-10-31T04:29:44;12.27;;;5.67;;
68507;SDS011;55510;49.560;19.090;2022-10-31T04:32:45;11.63;;;5.65;;
68507;SDS011;55510;49.560;19.090;2022-10-31T04:35:46;12.10;;;4.70;;
68507;SDS011;55510;49.560;19.090;2022-10-31T04:38:47;10.10;;;3.85;;
68507;SDS011;55510;49.560;19.090;2022-10-31T04:41:48;9.77;;;3.43;;
68507;SDS011;55510;49.560;19.090;2022-10-31T04:44:49;10.57;;;4.03;;
68507;SDS011;55510;49.560;19.090;2022-10-31T04:47:49;8.63;;;4.10;;
68507;SDS011;55510;49.560;19.090;2022-10-31T04:50:50;13.87;;;5.10;;
68507;SDS011;55510;49.560;19.090;2022-10-31T04:53:50;10.93;;;4.40;;
68507;SDS011;55510;49.560;19.090;2022-10-31T04:56:51;11.03;;;3.73;;
68507;SDS011;55510;49.560;19.090;2022-10-31T04:59:52;8.73;;;4.10;;
68507;SDS011;55510;49.560;19.090;2022-10-31T05:02:56;11.85;;;5.00;;
68507;SDS011;55510;49.560;19.090;2022-10-31T05:05:57;16.20;;;5.35;;
68507;SDS011;55510;49.560;19.090;2022-10-31T05:08:58;13.23;;;6.27;;
68507;SDS011;55510;49.560;19.090;2022-10-31T05:11:59;11.68;;;4.00;;
68507;SDS011;55510;49.560;19.090;2022-10-31T05:14:59;11.03;;;5.17;;
68507;SDS011;55510;49.560;19.090;2022-10-31T05:18:00;12.17;;;5.43;;
68507;SDS011;55510;49.560;19.090;2022-10-31T05:21:01;8.98;;;4.68;;
68507;SDS011;55510;49.560;19.090;2022-10-31T05:24:01;10.63;;;4.47;;
68507;SDS011;55510;49.560;19.090;2022-10-31T05:27:02;8.85;;;4.35;;
68507;SDS011;55510;49.560;19.090;2022-10-31T05:30:03;10.43;;;4.17;;
68507;SDS011;55510;49.560;19.090;2022-10-31T05:33:04;12.50;;;5.53;;
68507;SDS011;55510;49.560;19.090;2022-10-31T05:36:05;14.80;;;5.43;;
68507;SDS011;55510;49.560;19.090;2022-10-31T05:39:06;13.53;;;6.43;;
68507;SDS011;55510;49.560;19.090;2022-10-31T05:42:06;9.73;;;4.88;;
68507;SDS011;55510;49.560;19.090;2022-10-31T05:45:08;12.77;;;6.23;;
68507;SDS011;55510;49.560;19.090;2022-10-31T05:48:12;19.17;;;9.68;;
68507;SDS011;55510;49.560;19.090;2022-10-31T05:51:13;25.52;;;13.35;;
68507;SDS011;55510;49.560;19.090;2022-10-31T05:54:14;26.40;;;10.77;;
68507;SDS011;55510;49.560;19.090;2022-10-31T05:57:14;21.00;;;9.93;;
68507;SDS011;55510;49.560;19.090;2022-10-31T06:00:15;18.67;;;8.90;;
68507;SDS011;55510;49.560;19.090;2022-10-31T06:03:17;15.70;;;6.95;;
68507;SDS011;55510;49.560;19.090;2022-10-31T06:06:18;21.73;;;9.43;;
68507;SDS011;55510;49.560;19.090;2022-10-31T06:09:19;20.20;;;11.27;;
68507;SDS011;55510;49.560;19.090;2022-10-31T06:12:19;22.27;;;10.03;;
68507;SDS011;55510;49.560;19.090;2022-10-31T06:15:20;20.73;;;9.20;;
68507;SDS011;55510;49.560;19.090;2022-10-31T06:18:21;22.52;;;8.82;;
68507;SDS011;55510;49.560;19.090;2022-10-31T06:21:21;18.83;;;7.83;;
68507;SDS011;55510;49.560;19.090;2022-10-31T06:24:22;19.63;;;6.88;;
68507;SDS011;55510;49.560;19.090;2022-10-31T06:27:23;16.47;;;7.17;;
68507;SDS011;55510;49.560;19.090;2022-10-31T06:30:24;24.20;;;9.27;;
68507;SDS011;55510;49.560;19.090;2022-10-31T06:33:25;48.95;;;16.52;;
68507;SDS011;55510;49.560;19.090;2022-10-31T06:36:25;49.00;;;15.70;;
68507;SDS011;55510;49.560;19.090;2022-10-31T06:39:26;35.83;;;15.30;;
68507;SDS011;55510;49.560;19.090;2022-10-31T06:42:27;36.53;;;15.80;;
68507;SDS011;55510;49.560;19.090;2022-10-31T06:45:28;19.42;;;8.98;;
68507;SDS011;55510;49.560;19.090;2022-10-31T06:48:28;17.90;;;7.47;;
68507;SDS011;55510;49.560;19.090;2022-10-31T06:51:29;21.30;;;8.50;;
68507;SDS011;55510;49.560;19.090;2022-10-31T06:54:30;15.57;;;7.23;;
68507;SDS011;55510;49.560;19.090;2022-10-31T06:57:30;14.07;;;6.10;;
68507;SDS011;55510;49.560;19.090;2022-10-31T07:00:31;14.33;;;6.93;;
68507;SDS011;55510;49.560;19.090;2022-10-31T07:03:32;17.60;;;7.40;;
68507;SDS011;55510;49.560;19.090;2022-10-31T07:06:32;15.00;;;6.32;;
68507;SDS011;55510;49.560;19.090;2022-10-31T07:09:33;13.60;;;6.43;;
68507;SDS011;55510;49.560;19.090;2022-10-31T07:12:34;13.60;;;5.57;;
68507;SDS011;55510;49.560;19.090;2022-10-31T07:15:35;14.48;;;6.10;;
68507;SDS011;55510;49.560;19.090;2022-10-31T07:18:37;14.65;;;7.15;;
68507;SDS011;55510;49.560;19.090;2022-10-31T07:21:38;14.00;;;5.60;;
68507;SDS011;55510;49.560;19.090;2022-10-31T07:24:38;11.57;;;5.65;;
68507;SDS011;55510;49.560;19.090;2022-10-31T07:27:39;12.60;;;8.00;;
68507;SDS011;55510;49.560;19.090;2022-10-31T07:30:41;10.13;;;5.47;;
68507;SDS011;55510;49.560;19.090;2022-10-31T07:33:42;14.27;;;6.07;;
68507;SDS011;55510;49.560;19.090;2022-10-31T07:36:43;10.55;;;6.07;;
68507;SDS011;55510;49.560;19.090;2022-10-31T07:39:43;12.53;;;5.67;;
68507;SDS011;55510;49.560;19.090;2022-10-31T07:42:45;13.23;;;5.37;;
68507;SDS011;55510;49.560;19.090;2022-10-31T07:45:50;13.38;;;5.68;;
68507;SDS011;55510;49.560;19.090;2022-10-31T07:48:52;11.65;;;6.50;;
68507;SDS011;55510;49.560;19.090;2022-10-31T07:51:53;9.93;;;5.30;;
68507;SDS011;55510;49.560;19.090;2022-10-31T07:54:53;12.33;;;5.97;;
68507;SDS011;55510;49.560;19.090;2022-10-31T07:58:01;14.40;;;7.23;;
68507;SDS011;55510;49.560;19.090;2022-10-31T08:01:03;14.13;;;6.00;;
68507;SDS011;55510;49.560;19.090;2022-10-31T08:04:04;15.00;;;7.22;;
68507;SDS011;55510;49.560;19.090;2022-10-31T08:07:04;20.27;;;13.30;;
68507;SDS011;55510;49.560;19.090;2022-10-31T08:10:05;18.98;;;11.70;;
68507;SDS011;55510;49.560;19.090;2022-10-31T08:13:07;20.00;;;10.00;;
68507;SDS011;55510;49.560;19.090;2022-10-31T08:16:10;13.95;;;8.25;;
68507;SDS011;55510;49.560;19.090;2022-10-31T08:19:11;14.80;;;8.13;;
68507;SDS011;55510;49.560;19.090;2022-10-31T08:22:11;21.02;;;9.48;;
68507;SDS011;55510;49.560;19.090;2022-10-31T08:25:12;17.40;;;9.63;;
68507;SDS011;55510;49.560;19.090;2022-10-31T08:28:14;19.10;;;8.35;;
68507;SDS011;55510;49.560;19.090;2022-10-31T08:31:15;19.17;;;8.60;;
68507;SDS011;55510;49.560;19.090;2022-10-31T08:34:15;17.97;;;8.43;;
68507;SDS011;55510;49.560;19.090;2022-10-31T08:37:16;16.95;;;9.48;;
68507;SDS011;55510;49.560;19.090;2022-10-31T08:40:20;17.63;;;9.60;;
68507;SDS011;55510;49.560;19.090;2022-10-31T08:43:23;14.95;;;8.25;;
68507;SDS011;55510;49.560;19.090;2022-10-31T08:46:24;16.27;;;9.70;;
68507;SDS011;55510;49.560;19.090;2022-10-31T08:49:24;14.80;;;8.53;;
68507;SDS011;55510;49.560;19.090;2022-10-31T08:52:25;15.60;;;8.98;;
68507;SDS011;55510;49.560;19.090;2022-10-31T08:55:26;14.70;;;7.20;;
68507;SDS011;55510;49.560;19.090;2022-10-31T08:58:27;14.95;;;7.55;;
68507;SDS011;55510;49.560;19.090;2022-10-31T09:01:27;14.47;;;7.97;;
68507;SDS011;55510;49.560;19.090;2022-10-31T09:04:28;11.63;;;6.87;;
68507;SDS011;55510;49.560;19.090;2022-10-31T09:07:29;12.73;;;6.67;;
68507;SDS011;55510;49.560;19.090;2022-10-31T09:10:30;11.77;;;6.25;;
68507;SDS011;55510;49.560;19.090;2022-10-31T09:13:32;13.60;;;6.32;;
68507;SDS011;55510;49.560;19.090;2022-10-31T09:16:33;11.30;;;5.13;;
68507;SDS011;55510;49.560;19.090;2022-10-31T09:19:33;13.07;;;6.17;;
68507;SDS011;55510;49.560;19.090;2022-10-31T09:22:36;16.67;;;6.40;;
68507;SDS011;55510;49.560;19.090;2022-10-31T09:25:37;10.67;;;5.97;;
68507;SDS011;55510;49.560;19.090;2022-10-31T09:28:38;15.20;;;6.40;;
68507;SDS011;55510;49.560;19.090;2022-10-31T09:31:38;12.10;;;6.27;;
68507;SDS011;55510;49.560;19.090;2022-10-31T09:34:39;11.70;;;6.50;;
68507;SDS011;55510;49.560;19.090;2022-10-31T09:37:39;17.77;;;6.80;;
68507;SDS011;55510;49.560;19.090;2022-10-31T09:40:47;13.00;;;6.15;;
68507;SDS011;55510;49.560;19.090;2022-10-31T09:47:47;11.52;;;5.50;;
68507;SDS011;55510;49.560;19.090;2022-10-31T09:50:57;12.15;;;5.57;;
68507;SDS011;55510;49.560;19.090;2022-10-31T09:54:11;10.45;;;5.15;;
68507;SDS011;55510;49.560;19.090;2022-10-31T09:57:17;14.52;;;7.03;;
68507;SDS011;55510;49.560;19.090;2022-10-31T10:00:24;21.97;;;9.77;;
68507;SDS011;55510;49.560;19.090;2022-10-31T10:03:43;24.23;;;11.70;;
68507;SDS011;55510;49.560;19.090;2022-10-31T10:06:49;35.80;;;12.07;;
68507;SDS011;55510;49.560;19.090;2022-10-31T10:09:52;22.60;;;8.97;;
68507;SDS011;55510;49.560;19.090;2022-10-31T10:13:02;19.25;;;8.20;;
68507;SDS011;55510;49.560;19.090;2022-10-31T10:16:16;14.68;;;5.78;;
68507;SDS011;55510;49.560;19.090;2022-10-31T10:26:18;20.97;;;7.80;;
68507;SDS011;55510;49.560;19.090;2022-10-31T10:32:42;22.38;;;8.02;;
68507;SDS011;55510;49.560;19.090;2022-10-31T10:35:47;17.05;;;6.43;;
68507;SDS011;55510;49.560;19.090;2022-10-31T10:38:54;14.23;;;6.30;;
68507;SDS011;55510;49.560;19.090;2022-10-31T10:41:59;13.73;;;6.00;;
68507;SDS011;55510;49.560;19.090;2022-10-31T10:45:19;21.38;;;6.50;;
68507;SDS011;55510;49.560;19.090;2022-10-31T10:58:44;17.77;;;7.97;;
68507;SDS011;55510;49.560;19.090;2022-10-31T11:01:45;13.50;;;7.03;;
68507;SDS011;55510;49.560;19.090;2022-10-31T11:05:00;12.07;;;6.63;;
68507;SDS011;55510;49.560;19.090;2022-10-31T11:08:02;15.93;;;6.47;;
68507;SDS011;55510;49.560;19.090;2022-10-31T11:11:07;15.23;;;6.82;;
68507;SDS011;55510;49.560;19.090;2022-10-31T11:14:12;12.57;;;6.30;;
68507;SDS011;55510;49.560;19.090;2022-10-31T11:17:25;44.58;;;24.77;;
68507;SDS011;55510;49.560;19.090;2022-10-31T11:20:30;13.80;;;8.32;;
68507;SDS011;55510;49.560;19.090;2022-10-31T11:23:34;13.65;;;5.00;;
68507;SDS011;55510;49.560;19.090;2022-10-31T11:26:39;12.97;;;5.67;;
68507;SDS011;55510;49.560;19.090;2022-10-31T11:29:42;11.63;;;5.40;;
68507;SDS011;55510;49.560;19.090;2022-10-31T11:32:45;13.38;;;6.15;;
68507;SDS011;55510;49.560;19.090;2022-10-31T11:35:51;15.20;;;6.32;;
68507;SDS011;55510;49.560;19.090;2022-10-31T11:38:53;17.37;;;8.77;;
68507;SDS011;55510;49.560;19.090;2022-10-31T11:41:54;22.10;;;10.63;;
68507;SDS011;55510;49.560;19.090;2022-10-31T11:45:00;54.20;;;26.98;;
68507;SDS011;55510;49.560;19.090;2022-10-31T11:48:18;18.42;;;10.10;;
68507;SDS011;55510;49.560;19.090;2022-10-31T11:51:27;54.60;;;26.35;;
68507;SDS011;55510;49.560;19.090;2022-10-31T11:57:58;18.60;;;7.93;;
68507;SDS011;55510;49.560;19.090;2022-10-31T12:00:59;13.38;;;6.72;;
68507;SDS011;55510;49.560;19.090;2022-10-31T12:07:08;17.00;;;8.15;;
68507;SDS011;55510;49.560;19.090;2022-10-31T12:10:12;16.45;;;8.85;;
68507;SDS011;55510;49.560;19.090;2022-10-31T12:16:46;14.97;;;7.97;;
68507;SDS011;55510;49.560;19.090;2022-10-31T12:27:08;26.90;;;14.45;;
68507;SDS011;55510;49.560;19.090;2022-10-31T12:39:59;16.48;;;8.50;;
68507;SDS011;55510;49.560;19.090;2022-10-31T12:53:19;22.13;;;10.93;;
68507;SDS011;55510;49.560;19.090;2022-10-31T12:59:59;24.38;;;11.50;;
68507;SDS011;55510;49.560;19.090;2022-10-31T13:03:09;24.90;;;9.57;;
68507;SDS011;55510;49.560;19.090;2022-10-31T13:06:24;14.80;;;6.57;;
68507;SDS011;55510;49.560;19.090;2022-10-31T13:09:35;26.92;;;12.07;;
68507;SDS011;55510;49.560;19.090;2022-10-31T13:12:44;32.58;;;13.57;;
68507;SDS011;55510;49.560;19.090;2022-10-31T13:15:48;24.35;;;11.57;;
68507;SDS011;55510;49.560;19.090;2022-10-31T13:18:54;28.70;;;13.70;;
68507;SDS011;55510;49.560;19.090;2022-10-31T13:25:17;22.70;;;9.65;;
68507;SDS011;55510;49.560;19.090;2022-10-31T13:28:28;27.00;;;12.05;;
68507;SDS011;55510;49.560;19.090;2022-10-31T13:31:39;31.92;;;13.98;;
68507;SDS011;55510;49.560;19.090;2022-10-31T13:34:42;27.47;;;11.80;;
68507;SDS011;55510;49.560;19.090;2022-10-31T13:37:50;24.67;;;10.50;;
68507;SDS011;55510;49.560;19.090;2022-10-31T13:40:59;22.67;;;9.25;;
68507;SDS011;55510;49.560;19.090;2022-10-31T13:47:26;24.05;;;10.40;;
68507;SDS011;55510;49.560;19.090;2022-10-31T13:50:29;19.77;;;7.50;;
68507;SDS011;55510;49.560;19.090;2022-10-31T13:56:56;21.73;;;10.10;;
68507;SDS011;55510;49.560;19.090;2022-10-31T13:59:58;23.58;;;9.35;;
68507;SDS011;55510;49.560;19.090;2022-10-31T14:03:01;25.83;;;10.10;;
68507;SDS011;55510;49.560;19.090;2022-10-31T14:06:02;25.23;;;9.68;;
68507;SDS011;55510;49.560;19.090;2022-10-31T14:09:03;21.55;;;8.27;;
68507;SDS011;55510;49.560;19.090;2022-10-31T14:12:07;22.03;;;10.07;;
68507;SDS011;55510;49.560;19.090;2022-10-31T14:15:26;25.30;;;11.98;;
68507;SDS011;55510;49.560;19.090;2022-10-31T14:18:29;22.10;;;10.52;;
68507;SDS011;55510;49.560;19.090;2022-10-31T14:24:44;23.53;;;10.60;;
68507;SDS011;55510;49.560;19.090;2022-10-31T14:27:45;43.30;;;18.77;;
68507;SDS011;55510;49.560;19.090;2022-10-31T14:30:54;42.40;;;18.58;;
68507;SDS011;55510;49.560;19.090;2022-10-31T14:33:56;36.43;;;15.57;;
68507;SDS011;55510;49.560;19.090;2022-10-31T14:50:48;31.63;;;14.55;;
68507;SDS011;55510;49.560;19.090;2022-10-31T14:53:59;26.67;;;13.30;;
68507;SDS011;55510;49.560;19.090;2022-10-31T14:57:02;26.60;;;13.10;;
68507;SDS011;55510;49.560;19.090;2022-10-31T15:00:07;29.63;;;15.47;;
68507;SDS011;55510;49.560;19.090;2022-10-31T15:06:43;50.67;;;20.05;;
68507;SDS011;55510;49.560;19.090;2022-10-31T15:09:57;45.13;;;17.77;;
68507;SDS011;55510;49.560;19.090;2022-10-31T15:13:10;50.60;;;19.67;;
68507;SDS011;55510;49.560;19.090;2022-10-31T15:16:19;58.17;;;22.20;;
68507;SDS011;55510;49.560;19.090;2022-10-31T15:19:23;50.83;;;19.47;;
68507;SDS011;55510;49.560;19.090;2022-10-31T15:22:26;38.47;;;16.48;;
68507;SDS011;55510;49.560;19.090;2022-10-31T15:25:32;34.85;;;15.07;;
68507;SDS011;55510;49.560;19.090;2022-10-31T15:28:34;37.72;;;15.75;;
68507;SDS011;55510;49.560;19.090;2022-10-31T15:31:35;31.37;;;15.57;;
68507;SDS011;55510;49.560;19.090;2022-10-31T15:34:39;51.60;;;22.57;;
68507;SDS011;55510;49.560;19.090;2022-10-31T15:37:41;47.10;;;20.27;;
68507;SDS011;55510;49.560;19.090;2022-10-31T15:40:50;50.88;;;22.45;;
68507;SDS011;55510;49.560;19.090;2022-10-31T15:43:53;72.67;;;25.60;;
68507;SDS011;55510;49.560;19.090;2022-10-31T15:46:58;63.55;;;27.55;;
68507;SDS011;55510;49.560;19.090;2022-10-31T15:50:36;61.35;;;24.83;;
68507;SDS011;55510;49.560;19.090;2022-10-31T15:53:45;42.25;;;20.25;;
68507;SDS011;55510;49.560;19.090;2022-10-31T15:56:50;38.55;;;19.60;;
68507;SDS011;55510;49.560;19.090;2022-10-31T15:59:50;49.07;;;21.50;;
68507;SDS011;55510;49.560;19.090;2022-10-31T16:06:22;90.43;;;43.47;;
68507;SDS011;55510;49.560;19.090;2022-10-31T16:09:23;86.23;;;39.23;;
68507;SDS011;55510;49.560;19.090;2022-10-31T16:12:29;79.40;;;39.35;;
68507;SDS011;55510;49.560;19.090;2022-10-31T16:15:35;78.90;;;36.30;;
68507;SDS011;55510;49.560;19.090;2022-10-31T16:18:36;70.43;;;34.07;;
68507;SDS011;55510;49.560;19.090;2022-10-31T16:21:39;82.33;;;39.43;;
68507;SDS011;55510;49.560;19.090;2022-10-31T16:24:45;77.57;;;36.42;;
68507;SDS011;55510;49.560;19.090;2022-10-31T16:27:50;79.57;;;36.35;;
68507;SDS011;55510;49.560;19.090;2022-10-31T16:30:53;82.95;;;38.60;;
68507;SDS011;55510;49.560;19.090;2022-10-31T16:34:28;77.60;;;35.73;;
68507;SDS011;55510;49.560;19.090;2022-10-31T16:37:23;71.60;;;35.37;;
68507;SDS011;55510;49.560;19.090;2022-10-31T16:40:23;79.85;;;37.60;;
68507;SDS011;55510;49.560;19.090;2022-10-31T16:43:24;83.93;;;41.50;;
68507;SDS011;55510;49.560;19.090;2022-10-31T16:46:26;90.13;;;43.23;;
68507;SDS011;55510;49.560;19.090;2022-10-31T16:49:27;90.15;;;45.22;;
68507;SDS011;55510;49.560;19.090;2022-10-31T16:52:28;87.33;;;42.57;;
68507;SDS011;55510;49.560;19.090;2022-10-31T16:55:28;82.22;;;38.35;;
68507;SDS011;55510;49.560;19.090;2022-10-31T16:58:30;86.97;;;40.30;;
68507;SDS011;55510;49.560;19.090;2022-10-31T17:01:33;80.50;;;39.90;;
68507;SDS011;55510;49.560;19.090;2022-10-31T17:04:35;87.40;;;42.10;;
68507;SDS011;55510;49.560;19.090;2022-10-31T17:07:35;115.90;;;53.23;;
68507;SDS011;55510;49.560;19.090;2022-10-31T17:10:37;109.00;;;49.97;;
68507;SDS011;55510;49.560;19.090;2022-10-31T17:13:39;95.47;;;44.70;;
68507;SDS011;55510;49.560;19.090;2022-10-31T17:16:41;96.77;;;42.33;;
68507;SDS011;55510;49.560;19.090;2022-10-31T17:19:41;126.57;;;55.92;;
68507;SDS011;55510;49.560;19.090;2022-10-31T17:22:42;112.20;;;52.13;;
68507;SDS011;55510;49.560;19.090;2022-10-31T17:25:43;117.60;;;51.03;;
68507;SDS011;55510;49.560;19.090;2022-10-31T17:28:43;180.43;;;68.50;;
68507;SDS011;55510;49.560;19.090;2022-10-31T17:31:44;152.90;;;59.03;;
68507;SDS011;55510;49.560;19.090;2022-10-31T17:34:45;132.00;;;52.53;;
68507;SDS011;55510;49.560;19.090;2022-10-31T17:37:46;110.23;;;46.20;;
68507;SDS011;55510;49.560;19.090;2022-10-31T17:40:47;129.18;;;52.17;;
68507;SDS011;55510;49.560;19.090;2022-10-31T17:43:48;112.57;;;48.23;;
68507;SDS011;55510;49.560;19.090;2022-10-31T17:46:48;129.60;;;53.30;;
68507;SDS011;55510;49.560;19.090;2022-10-31T17:49:49;112.57;;;47.40;;
68507;SDS011;55510;49.560;19.090;2022-10-31T17:52:50;99.80;;;44.78;;
68507;SDS011;55510;49.560;19.090;2022-10-31T17:55:51;118.63;;;55.72;;
68507;SDS011;55510;49.560;19.090;2022-10-31T17:58:51;103.73;;;51.60;;
68507;SDS011;55510;49.560;19.090;2022-10-31T18:01:52;98.87;;;49.17;;
68507;SDS011;55510;49.560;19.090;2022-10-31T18:04:53;87.88;;;45.97;;
68507;SDS011;55510;49.560;19.090;2022-10-31T18:07:53;85.30;;;43.80;;
68507;SDS011;55510;49.560;19.090;2022-10-31T18:10:54;99.50;;;51.17;;
68507;SDS011;55510;49.560;19.090;2022-10-31T18:13:59;121.38;;;59.42;;
68507;SDS011;55510;49.560;19.090;2022-10-31T18:17:00;141.90;;;66.97;;
68507;SDS011;55510;49.560;19.090;2022-10-31T18:20:03;138.32;;;61.72;;
68507;SDS011;55510;49.560;19.090;2022-10-31T18:23:06;127.30;;;61.85;;
68507;SDS011;55510;49.560;19.090;2022-10-31T18:26:06;117.97;;;54.67;;
68507;SDS011;55510;49.560;19.090;2022-10-31T18:29:08;103.53;;;50.53;;
68507;SDS011;55510;49.560;19.090;2022-10-31T18:32:10;103.77;;;49.40;;
68507;SDS011;55510;49.560;19.090;2022-10-31T18:35:11;112.05;;;52.15;;
68507;SDS011;55510;49.560;19.090;2022-10-31T18:38:11;114.70;;;51.13;;
68507;SDS011;55510;49.560;19.090;2022-10-31T18:41:12;118.10;;;49.83;;
68507;SDS011;55510;49.560;19.090;2022-10-31T18:44:14;95.13;;;45.20;;
68507;SDS011;55510;49.560;19.090;2022-10-31T18:47:14;88.60;;;43.65;;
68507;SDS011;55510;49.560;19.090;2022-10-31T18:50:16;91.32;;;44.65;;
68507;SDS011;55510;49.560;19.090;2022-10-31T18:53:17;99.50;;;48.78;;
68507;SDS011;55510;49.560;19.090;2022-10-31T18:56:18;98.17;;;45.50;;
68507;SDS011;55510;49.560;19.090;2022-10-31T18:59:26;94.28;;;44.08;;
68507;SDS011;55510;49.560;19.090;2022-10-31T19:02:26;95.10;;;44.43;;
68507;SDS011;55510;49.560;19.090;2022-10-31T19:05:27;84.18;;;42.55;;
68507;SDS011;55510;49.560;19.090;2022-10-31T19:08:28;87.80;;;43.63;;
68507;SDS011;55510;49.560;19.090;2022-10-31T19:11:32;80.00;;;38.83;;
68507;SDS011;55510;49.560;19.090;2022-10-31T19:14:33;105.10;;;50.13;;
68507;SDS011;55510;49.560;19.090;2022-10-31T19:17:33;115.32;;;52.25;;
68507;SDS011;55510;49.560;19.090;2022-10-31T19:20:36;92.60;;;44.83;;
68507;SDS011;55510;49.560;19.090;2022-10-31T19:23:38;81.40;;;38.67;;
68507;SDS011;55510;49.560;19.090;2022-10-31T19:26:39;83.15;;;37.40;;
68507;SDS011;55510;49.560;19.090;2022-10-31T19:29:39;69.03;;;33.70;;
68507;SDS011;55510;49.560;19.090;2022-10-31T19:32:41;80.13;;;37.38;;
68507;SDS011;55510;49.560;19.090;2022-10-31T19:35:42;80.05;;;36.30;;
68507;SDS011;55510;49.560;19.090;2022-10-31T19:38:43;84.27;;;39.40;;
68507;SDS011;55510;49.560;19.090;2022-10-31T19:41:46;88.53;;;40.38;;
68507;SDS011;55510;49.560;19.090;2022-10-31T19:44:47;124.13;;;51.87;;
68507;SDS011;55510;49.560;19.090;2022-10-31T19:47:48;136.65;;;57.13;;
68507;SDS011;55510;49.560;19.090;2022-10-31T19:50:49;114.30;;;49.57;;
68507;SDS011;55510;49.560;19.090;2022-10-31T19:53:50;95.95;;;45.03;;